Time;durP1;ratioP1;P1;durP2;ratioP2;P2;SDS_P1;SDS_P2;PMS_P1;PMS_P2;Temp;Humidity;BMP_temperature;BMP_pressure;BME280_temperature;BME280_humidity;BME280_pressure;Samples;Min_cycle;Max_cycle;Signal;HPM_P1;HPM_P2
2021/05/13 00:01:28;;;;;;;2.50;1.30;;;;;;;12.66;65.70;100025.53;1756942;79;21654;-43
2021/05/13 00:03:55;;;;;;;1.55;1.15;;;;;;;12.63;65.73;100023.09;1757101;79;21005;-43
2021/05/13 00:06:21;;;;;;;3.00;1.65;;;;;;;12.62;66.01;100022.70;1756217;79;21001;-40
2021/05/13 00:08:55;;;;;;;2.05;1.45;;;;;;;12.61;66.14;100022.83;1764650;79;21025;-43
2021/05/13 00:11:18;;;;;;;2.02;1.37;;;;;;;12.60;66.28;100023.33;1760496;79;21092;-43
2021/05/13 00:13:47;;;;;;;2.35;1.40;;;;;;;12.61;66.40;100025.02;1760108;79;21061;-42
2021/05/13 00:16:13;;;;;;;1.95;1.20;;;;;;;12.61;66.32;100026.84;1758449;79;20993;-42
2021/05/13 00:18:40;;;;;;;2.20;1.37;;;;;;;12.59;66.36;100024.27;1758966;79;21571;-41
2021/05/13 00:21:06;;;;;;;2.25;1.20;;;;;;;12.56;66.33;100025.36;1723672;81;21014;-41
2021/05/13 00:23:33;;;;;;;3.95;1.10;;;;;;;12.53;66.38;100019.39;1761336;79;21528;-42
2021/05/13 00:26:00;;;;;;;2.27;1.45;;;;;;;12.51;66.57;100021.31;1757129;79;21069;-42
2021/05/13 00:28:27;;;;;;;3.55;1.85;;;;;;;12.49;66.66;100014.73;1767984;79;20958;-41
2021/05/13 00:30:53;;;;;;;2.12;1.67;;;;;;;12.47;66.53;100011.80;1756261;79;21072;-41
2021/05/13 00:33:19;;;;;;;1.45;1.10;;;;;;;12.46;66.51;100012.30;1764464;79;21831;-41
2021/05/13 00:35:46;;;;;;;2.25;1.30;;;;;;;12.43;66.55;100005.84;1719916;81;21129;-41
2021/05/13 00:38:13;;;;;;;1.82;1.00;;;;;;;12.40;66.64;100000.73;1765798;79;20998;-41
2021/05/13 00:40:39;;;;;;;2.30;1.25;;;;;;;12.37;66.60;99999.59;1760257;79;21029;-42
2021/05/13 00:43:06;;;;;;;2.00;1.37;;;;;;;12.34;66.78;99999.82;1759627;79;21337;-40
2021/05/13 00:45:32;;;;;;;2.58;0.95;;;;;;;12.28;66.90;99997.61;1760446;79;21041;-40
2021/05/13 00:50:26;;;;;;;1.70;1.20;;;;;;;12.25;67.23;99993.83;1664757;84;21036;-41
2021/05/13 00:52:52;;;;;;;1.30;1.07;;;;;;;12.23;67.33;99991.26;1761377;79;21651;-41
2021/05/13 00:55:19;;;;;;;2.70;0.98;;;;;;;12.22;67.38;99990.90;1760647;79;20990;-42
2021/05/13 00:57:48;;;;;;;2.10;1.50;;;;;;;12.21;67.49;99982.49;1774393;78;21048;-41
2021/05/13 01:02:48;;;;;;;1.60;1.30;;;;;;;12.17;67.68;99986.37;1638988;85;21088;-40
2021/05/13 01:05:14;;;;;;;2.15;1.25;;;;;;;12.16;67.80;99988.66;1667025;84;21022;-40
2021/05/13 01:07:42;;;;;;;2.08;1.22;;;;;;;12.15;67.83;99982.95;1689526;83;21006;-40
2021/05/13 01:10:10;;;;;;;1.72;1.35;;;;;;;12.12;67.95;99982.70;1686447;83;21093;-40
2021/05/13 01:12:42;;;;;;;2.08;1.07;;;;;;;12.09;68.14;99980.70;1641674;85;21068;-41
2021/05/13 01:15:21;;;;;;;2.25;1.75;;;;;;;12.06;68.28;99973.77;1638839;86;21070;-40
2021/05/13 01:17:54;;;;;;;3.17;1.62;;;;;;;12.01;68.34;99973.73;1693225;84;21062;-41
2021/05/13 01:20:11;;;;;;;2.08;1.45;;;;;;;11.96;68.32;99973.22;1684044;83;21074;-39
2021/05/13 01:22:38;;;;;;;3.52;1.80;;;;;;;11.92;68.38;99973.94;1686751;83;21026;-42
2021/05/13 01:25:06;;;;;;;2.65;1.50;;;;;;;11.90;68.56;99977.19;1624436;86;21624;-40
2021/05/13 01:27:32;;;;;;;2.37;1.60;;;;;;;11.88;68.66;99979.96;1642388;85;21070;-40
2021/05/13 01:30:00;;;;;;;3.02;1.70;;;;;;;11.86;68.78;99976.54;1681213;83;21511;-41
2021/05/13 01:32:26;;;;;;;2.85;1.60;;;;;;;11.85;68.94;99980.64;1686756;84;21049;-45
2021/05/13 01:34:53;;;;;;;2.20;1.60;;;;;;;11.85;69.08;99981.49;1687111;83;21026;-44
2021/05/13 01:37:19;;;;;;;2.05;1.32;;;;;;;11.86;69.18;99985.02;1687342;83;21190;-42
2021/05/13 01:39:46;;;;;;;1.60;1.30;;;;;;;11.88;69.29;99982.63;1724024;79;21516;-42
2021/05/13 01:42:14;;;;;;;2.42;1.67;;;;;;;11.90;69.39;99983.38;1770586;79;21014;-42
2021/05/13 01:44:41;;;;;;;2.17;1.47;;;;;;;11.91;69.49;99978.40;1770448;78;21520;-41
2021/05/13 01:47:09;;;;;;;2.50;1.50;;;;;;;11.93;69.53;99980.13;1776583;78;21040;-42
2021/05/13 01:49:35;;;;;;;1.98;1.35;;;;;;;11.95;69.60;99986.22;1782058;78;20962;-43
2021/05/13 01:52:02;;;;;;;2.87;1.80;;;;;;;11.96;69.67;99978.07;1766216;79;21556;-41
2021/05/13 01:54:28;;;;;;;2.10;1.80;;;;;;;11.97;69.83;99979.80;1779425;78;21559;-44
2021/05/13 01:57:03;;;;;;;3.75;2.30;;;;;;;11.93;69.79;99977.45;1774421;78;20993;-43
2021/05/13 01:59:30;;;;;;;2.40;1.98;;;;;;;11.90;69.80;99978.04;1770724;79;21000;-44
2021/05/13 02:01:58;;;;;;;2.62;1.70;;;;;;;11.87;70.07;99980.94;1774042;79;21333;-44
2021/05/13 02:04:25;;;;;;;2.72;1.90;;;;;;;11.87;70.17;99984.95;1775689;79;21032;-46
2021/05/13 02:06:52;;;;;;;4.87;2.27;;;;;;;11.87;70.17;99980.94;1763373;79;21050;-44
2021/05/13 02:09:18;;;;;;;2.92;2.30;;;;;;;11.87;70.25;99982.27;1769313;79;21021;-40
2021/05/13 02:11:45;;;;;;;2.47;1.87;;;;;;;11.90;70.42;99975.86;1767905;79;20993;-40
2021/05/13 02:14:15;;;;;;;2.17;1.98;;;;;;;11.93;70.51;99975.63;1770822;79;21595;-42
2021/05/13 02:16:42;;;;;;;2.77;1.87;;;;;;;11.95;70.59;99974.20;1767509;79;20973;-39
2021/05/13 02:19:09;;;;;;;2.98;1.87;;;;;;;11.95;70.67;99967.02;1769654;79;21005;-39
2021/05/13 02:21:36;;;;;;;3.10;2.15;;;;;;;11.97;70.78;99971.78;1771024;79;21005;-38
2021/05/13 02:24:03;;;;;;;2.60;2.20;;;;;;;11.98;70.80;99960.61;1775945;79;21001;-39
2021/05/13 02:26:29;;;;;;;2.62;2.35;;;;;;;11.99;70.76;99964.97;1772840;79;21017;-43
2021/05/13 02:28:56;;;;;;;3.83;2.08;;;;;;;11.98;70.77;99960.61;1762919;79;21450;-39
2021/05/13 02:31:22;;;;;;;2.45;2.08;;;;;;;11.98;70.90;99963.28;1772503;79;21001;-41
2021/05/13 02:33:50;;;;;;;6.47;2.17;;;;;;;11.98;70.88;99959.27;1771565;79;21013;-42
2021/05/13 02:36:16;;;;;;;3.08;2.17;;;;;;;11.96;70.91;99959.86;1777651;79;21061;-42
2021/05/13 02:38:43;;;;;;;2.90;2.00;;;;;;;11.94;70.88;99960.45;1772564;79;21024;-43
2021/05/13 02:41:09;;;;;;;3.00;2.50;;;;;;;11.94;70.85;99965.30;1765944;79;21080;-43
2021/05/13 02:43:36;;;;;;;4.55;2.42;;;;;;;11.95;70.78;99968.85;1772995;79;21060;-41
2021/05/13 02:46:03;;;;;;;4.25;2.17;;;;;;;11.96;70.67;99970.55;1770990;79;21029;-41
2021/05/13 02:48:30;;;;;;;3.90;2.65;;;;;;;11.93;70.67;99970.28;1770720;79;21040;-42
2021/05/13 02:50:56;;;;;;;3.25;2.40;;;;;;;11.93;70.70;99962.76;1766369;79;21006;-42
2021/05/13 02:53:23;;;;;;;4.28;2.67;;;;;;;11.93;70.70;99968.10;1744689;79;21041;-44
2021/05/13 02:55:50;;;;;;;3.98;2.52;;;;;;;11.91;70.79;99971.72;1709424;82;21604;-43
2021/05/13 02:58:16;;;;;;;3.00;2.20;;;;;;;11.87;70.86;99970.74;1762191;79;21065;-42
2021/05/13 03:01:08;;;;;;;3.20;2.33;;;;;;;11.86;71.05;99971.66;1765046;79;21651;-42
2021/05/13 03:03:23;;;;;;;2.58;2.22;;;;;;;11.84;71.22;99972.23;1755561;79;20975;-42
2021/05/13 03:05:52;;;;;;;3.47;2.52;;;;;;;11.83;71.35;99975.40;1759429;79;21522;-40
2021/05/13 03:08:18;;;;;;;3.90;3.10;;;;;;;11.82;71.44;99975.04;1759314;79;21074;-43
2021/05/13 03:10:45;;;;;;;2.95;2.15;;;;;;;11.83;71.56;99977.22;1761497;79;21018;-41
2021/05/13 03:13:22;;;;;;;2.90;2.20;;;;;;;11.84;71.72;99981.13;1763409;80;21564;-38
2021/05/13 03:15:44;;;;;;;3.17;2.50;;;;;;;11.87;71.79;99976.93;1756796;79;21017;-38
2021/05/13 03:18:10;;;;;;;3.62;2.27;;;;;;;11.89;71.94;99982.14;1763518;79;21022;-40
2021/05/13 03:20:41;;;;;;;4.97;2.62;;;;;;;11.89;72.03;99983.48;1761732;79;21029;-41
2021/05/13 03:23:07;;;;;;;3.02;2.25;;;;;;;11.90;72.11;99986.55;1754452;79;21000;-43
2021/05/13 03:25:35;;;;;;;3.12;2.22;;;;;;;11.91;72.05;99986.91;1757963;79;20977;-43
2021/05/13 03:28:08;;;;;;;3.83;2.70;;;;;;;11.94;72.10;99988.50;1758068;79;21017;-43
2021/05/13 03:30:41;;;;;;;2.90;2.42;;;;;;;11.96;72.21;99994.59;1761146;79;21017;-41
2021/05/13 03:33:08;;;;;;;3.62;2.55;;;;;;;11.96;72.32;99992.77;1763494;79;21038;-42
2021/05/13 03:35:34;;;;;;;2.58;2.25;;;;;;;11.99;72.46;99997.89;1757871;79;20986;-41
2021/05/13 03:38:02;;;;;;;2.20;1.80;;;;;;;12.00;72.51;99990.75;1763436;79;20970;-41
2021/05/13 03:40:30;;;;;;;3.02;2.33;;;;;;;12.02;72.53;99988.80;1761768;79;21009;-40
2021/05/13 03:42:58;;;;;;;4.55;3.05;;;;;;;12.06;72.58;99992.97;1759358;79;21038;-40
2021/05/13 03:45:25;;;;;;;2.40;2.10;;;;;;;12.06;72.61;99995.64;1760309;79;21009;-42
2021/05/13 03:47:52;;;;;;;2.83;2.15;;;;;;;12.10;72.68;99997.13;1762557;79;21022;-42
2021/05/13 03:50:18;;;;;;;3.25;2.12;;;;;;;12.12;72.83;99989.86;1762821;79;20989;-43
2021/05/13 03:52:45;;;;;;;2.98;2.45;;;;;;;12.13;72.89;99996.41;1761070;79;21049;-41
2021/05/13 03:55:12;;;;;;;2.85;2.12;;;;;;;12.17;72.97;99991.72;1757764;79;21569;-39
2021/05/13 03:57:40;;;;;;;2.98;2.10;;;;;;;12.19;73.00;99986.24;1767976;79;21074;-40
2021/05/13 04:00:11;;;;;;;3.87;2.20;;;;;;;12.23;73.05;99994.42;1771812;79;21005;-41
2021/05/13 04:02:36;;;;;;;3.20;2.27;;;;;;;12.25;72.91;99992.50;1771798;79;21448;-41
2021/05/13 04:05:04;;;;;;;3.37;1.95;;;;;;;12.27;72.83;99987.86;1770277;79;20990;-42
2021/05/13 04:07:34;;;;;;;2.83;2.05;;;;;;;12.28;72.70;99985.09;1770465;79;21493;-46
2021/05/13 04:10:03;;;;;;;2.45;1.55;;;;;;;12.30;72.59;99982.32;1768586;79;21021;-43
2021/05/13 04:12:30;;;;;;;3.72;2.20;;;;;;;12.30;72.34;99986.33;1774905;79;21021;-42
2021/05/13 04:14:58;;;;;;;3.00;1.80;;;;;;;12.29;71.91;99982.78;1768842;79;21048;-45
2021/05/13 04:17:24;;;;;;;2.83;2.22;;;;;;;12.32;71.34;99980.36;1771311;79;21044;-43
2021/05/13 04:19:51;;;;;;;3.15;2.50;;;;;;;12.34;71.05;99983.30;1771498;79;21688;-45
2021/05/13 04:22:17;;;;;;;2.67;1.82;;;;;;;12.36;70.51;99990.36;1767725;79;21046;-43
2021/05/13 04:24:44;;;;;;;2.85;2.27;;;;;;;12.39;70.04;99997.66;1767549;79;20997;-44
2021/05/13 04:27:10;;;;;;;3.55;2.15;;;;;;;12.41;69.61;99993.06;1770689;79;21964;-43
2021/05/13 04:29:37;;;;;;;4.62;2.30;;;;;;;12.45;68.95;99989.70;1765591;79;21033;-46
2021/05/13 04:32:04;;;;;;;2.98;2.20;;;;;;;12.46;68.48;99989.56;1766696;79;21064;-43
2021/05/13 04:34:30;;;;;;;3.37;2.42;;;;;;;12.50;68.18;99988.38;1764082;79;21005;-44
2021/05/13 04:36:57;;;;;;;3.83;2.22;;;;;;;12.56;67.59;99994.59;1768590;79;21061;-43
2021/05/13 04:39:23;;;;;;;3.40;2.30;;;;;;;12.58;66.21;99994.50;1764483;79;21017;-45
2021/05/13 04:41:51;;;;;;;2.90;2.35;;;;;;;12.61;65.76;99993.41;1769494;79;21022;-41
2021/05/13 04:44:18;;;;;;;3.52;2.55;;;;;;;12.64;65.02;99998.53;1768118;79;21498;-44
2021/05/13 04:46:45;;;;;;;3.30;2.50;;;;;;;12.67;64.66;99996.47;1765683;79;21013;-42
2021/05/13 04:51:38;;;;;;;2.92;2.33;;;;;;;12.77;63.87;99987.27;1768152;79;21032;-44
2021/05/13 04:54:05;;;;;;;2.92;2.33;;;;;;;12.81;63.44;99986.57;1769013;79;20985;-42
2021/05/13 04:56:32;;;;;;;3.77;2.77;;;;;;;12.85;63.28;99990.24;1773603;79;21017;-46
2021/05/13 04:58:58;;;;;;;2.95;2.30;;;;;;;12.90;63.13;99988.53;1770244;79;21010;-43
2021/05/13 05:01:26;;;;;;;3.15;2.08;;;;;;;12.92;62.88;99981.25;1767471;79;21021;-44
2021/05/13 05:03:52;;;;;;;3.33;2.35;;;;;;;12.93;62.68;99986.49;1770980;79;21017;-45
2021/05/13 05:06:19;;;;;;;2.80;2.17;;;;;;;12.95;62.68;99979.66;1764714;79;20966;-43
2021/05/13 05:08:45;;;;;;;3.20;2.75;;;;;;;12.95;62.58;99977.87;1768409;79;21052;-44
2021/05/13 05:11:13;;;;;;;5.22;2.62;;;;;;;12.95;62.22;99981.00;1764222;79;21037;-45
2021/05/13 05:13:39;;;;;;;5.80;2.62;;;;;;;12.93;62.31;99987.83;1766567;79;21001;-46
2021/05/13 05:16:07;;;;;;;6.05;2.85;;;;;;;12.93;62.17;99986.49;1766477;79;21025;-44
2021/05/13 05:18:33;;;;;;;4.37;2.45;;;;;;;12.94;61.92;99979.31;1763180;79;20994;-45
2021/05/13 05:21:00;;;;;;;4.95;2.58;;;;;;;12.97;61.97;99985.27;1769517;79;21493;-44
2021/05/13 05:23:29;;;;;;;4.37;2.45;;;;;;;13.01;62.22;99977.87;1762251;79;21092;-44
2021/05/13 05:25:56;;;;;;;3.45;2.40;;;;;;;13.05;61.89;99980.67;1761137;80;20989;-44
2021/05/13 05:28:24;;;;;;;2.95;2.47;;;;;;;13.08;61.84;99980.45;1770209;79;21537;-42
2021/05/13 05:30:53;;;;;;;4.22;2.50;;;;;;;13.12;61.50;99985.08;1764914;79;21025;-45
2021/05/13 05:33:22;;;;;;;6.37;2.33;;;;;;;13.15;62.29;99980.36;1771074;79;21017;-46
2021/05/13 05:35:49;;;;;;;21.73;16.10;;;;;;;13.20;62.07;99979.52;1759193;79;21005;-46
2021/05/13 05:38:16;;;;;;;12.20;8.83;;;;;;;13.24;61.98;99978.78;1767228;79;20982;-45
2021/05/13 05:40:43;;;;;;;6.00;3.55;;;;;;;13.25;61.38;99975.12;1767532;79;21513;-44
2021/05/13 05:43:10;;;;;;;3.95;2.72;;;;;;;13.28;61.24;99976.73;1704040;82;21034;-44
2021/05/13 05:45:36;;;;;;;3.72;2.47;;;;;;;13.31;61.69;99975.19;1764071;79;21002;-44
2021/05/13 05:48:04;;;;;;;5.65;2.77;;;;;;;13.32;61.44;99976.39;1765402;79;21019;-43
2021/05/13 05:50:38;;;;;;;4.08;2.27;;;;;;;13.35;61.25;99981.50;1764469;79;20977;-44
2021/05/13 05:53:05;;;;;;;2.77;2.20;;;;;;;13.35;60.86;99980.16;1770527;79;21022;-44
2021/05/13 05:55:32;;;;;;;2.77;2.08;;;;;;;13.38;60.09;99985.30;1763498;79;21073;-44
2021/05/13 05:58:00;;;;;;;3.77;2.25;;;;;;;13.38;59.13;99984.42;1761672;79;21861;-45
2021/05/13 06:00:26;;;;;;;2.80;1.90;;;;;;;13.34;58.68;99979.80;1754118;80;21044;-45
2021/05/13 06:02:53;;;;;;;3.35;1.90;;;;;;;13.32;58.61;99980.89;1759653;79;21010;-45
2021/05/13 06:05:20;;;;;;;1.87;1.65;;;;;;;13.32;58.89;99983.57;1757039;80;21001;-43
2021/05/13 06:07:47;;;;;;;4.50;2.00;;;;;;;13.35;59.12;99976.14;1677850;83;21021;-45
2021/05/13 06:10:14;;;;;;;2.85;1.47;;;;;;;13.41;59.52;99981.03;1753744;80;21033;-45
2021/05/13 06:12:41;;;;;;;3.22;1.57;;;;;;;13.48;58.96;99981.88;1751055;79;21012;-47
2021/05/13 06:15:23;;;;;;;3.00;1.75;;;;;;;13.51;58.58;99978.49;1757082;80;21005;-45
2021/05/13 06:18:05;;;;;;;2.17;1.47;;;;;;;13.54;58.30;99976.91;1760191;80;21033;-44
2021/05/13 06:20:33;;;;;;;1.72;1.52;;;;;;;13.58;57.73;99985.54;1756376;80;21813;-46
2021/05/13 06:23:00;;;;;;;3.20;1.50;;;;;;;13.60;57.65;99980.42;1759559;80;21021;-44
2021/05/13 06:25:27;;;;;;;1.98;1.10;;;;;;;13.63;57.79;99988.25;1758727;79;21022;-44
2021/05/13 06:27:54;;;;;;;1.72;1.32;;;;;;;13.66;56.42;99978.23;1760057;79;20990;-43
2021/05/13 06:30:21;;;;;;;1.30;1.20;;;;;;;13.67;56.07;99981.30;1756740;79;20974;-42
2021/05/13 06:32:48;;;;;;;3.00;1.32;;;;;;;13.72;55.74;99983.13;1758568;79;21381;-46
2021/05/13 06:35:16;;;;;;;2.42;1.50;;;;;;;13.77;56.38;99983.61;1758994;79;21005;-45
2021/05/13 06:37:43;;;;;;;2.27;1.85;;;;;;;13.85;56.43;99979.83;1762529;80;21073;-44
2021/05/13 06:40:10;;;;;;;3.70;2.33;;;;;;;13.93;55.30;99986.75;1758886;80;20990;-44
2021/05/13 06:42:37;;;;;;;3.20;1.30;;;;;;;13.97;55.23;99985.55;1761700;79;21509;-44
2021/05/13 06:45:05;;;;;;;1.82;1.22;;;;;;;14.03;55.51;99981.52;1757218;80;21045;-45
2021/05/13 06:47:31;;;;;;;1.60;1.37;;;;;;;14.06;55.75;99979.45;1755100;80;21513;-44
2021/05/13 06:49:58;;;;;;;2.33;1.40;;;;;;;14.14;56.20;99976.64;1756026;80;20985;-46
2021/05/13 06:52:25;;;;;;;2.25;1.20;;;;;;;14.21;55.32;99979.16;1754189;79;21061;-45
2021/05/13 06:54:51;;;;;;;2.12;1.62;;;;;;;14.26;54.46;99971.59;1753444;80;20992;-44
2021/05/13 06:57:18;;;;;;;1.75;1.60;;;;;;;14.31;54.16;99976.09;1759320;80;21034;-46
2021/05/13 06:59:45;;;;;;;2.15;1.52;;;;;;;14.38;54.75;99973.77;1756968;79;21807;-46
2021/05/13 07:02:12;;;;;;;2.47;1.40;;;;;;;14.47;53.89;99971.19;1758801;79;21045;-43
2021/05/13 07:04:39;;;;;;;3.92;0.98;;;;;;;14.49;53.18;99967.89;1765183;79;21065;-44
2021/05/13 07:07:07;;;;;;;3.05;1.00;;;;;;;14.52;53.99;99965.45;1703841;82;21538;-46
2021/05/13 07:09:34;;;;;;;1.55;0.93;;;;;;;14.57;53.29;99967.28;1761601;79;20962;-46
2021/05/13 07:12:00;;;;;;;3.37;0.93;;;;;;;14.61;52.40;99962.50;1764414;79;21018;-44
2021/05/13 07:14:26;;;;;;;4.30;1.37;;;;;;;14.65;53.07;99963.96;1763414;79;21010;-45
2021/05/13 07:16:55;;;;;;;1.70;1.30;;;;;;;14.71;54.06;99956.23;1771066;80;20986;-44
2021/05/13 07:19:21;;;;;;;2.72;1.30;;;;;;;14.78;53.73;99963.28;1760275;79;20974;-45
2021/05/13 07:21:48;;;;;;;3.12;1.27;;;;;;;14.84;53.25;99961.45;1756434;79;20986;-40
2021/05/13 07:24:15;;;;;;;4.62;2.08;;;;;;;14.89;53.16;99963.25;1759123;79;21034;-46
2021/05/13 07:26:41;;;;;;;3.65;1.62;;;;;;;14.93;53.64;99961.98;1758482;79;20993;-49
2021/05/13 07:29:09;;;;;;;3.37;1.47;;;;;;;14.97;53.25;99960.38;1760675;79;21827;-50
2021/05/13 07:31:46;;;;;;;1.67;1.00;;;;;;;14.97;53.19;99945.14;1755671;79;21576;-48
2021/05/13 07:34:18;;;;;;;2.27;1.12;;;;;;;14.98;52.60;99957.58;1760362;79;21022;-39
2021/05/13 07:36:45;;;;;;;2.50;1.20;;;;;;;15.00;52.17;99956.12;1769018;79;21109;-43
2021/05/13 07:39:11;;;;;;;4.15;1.25;;;;;;;15.01;51.55;99961.33;1730545;81;20948;-46
2021/05/13 07:41:38;;;;;;;2.37;1.15;;;;;;;15.00;50.96;99965.02;1765091;79;21018;-43
2021/05/13 07:44:06;;;;;;;1.22;0.95;;;;;;;15.03;51.63;99965.24;1703770;82;21870;-50
2021/05/13 07:46:37;;;;;;;2.12;1.15;;;;;;;15.05;51.22;99963.28;1761641;79;20990;-42
2021/05/13 07:49:01;;;;;;;4.03;1.10;;;;;;;15.05;49.99;99965.47;1686409;83;21015;-45
2021/05/13 07:51:29;;;;;;;1.52;1.17;;;;;;;15.07;50.01;99968.04;1758016;79;21599;-44
2021/05/13 07:53:58;;;;;;;0.82;0.80;;;;;;;15.10;49.10;99970.45;1747506;80;21592;-44
2021/05/13 07:56:26;;;;;;;2.75;1.30;;;;;;;15.10;49.36;99961.91;1761623;79;21629;-43
2021/05/13 07:59:12;;;;;;;2.02;0.98;;;;;;;15.12;49.13;99959.09;1756137;79;21376;-44
2021/05/13 08:02:00;;;;;;;1.47;1.05;;;;;;;15.13;49.29;99971.53;1658331;84;21128;-44
2021/05/13 08:04:26;;;;;;;3.20;1.50;;;;;;;15.14;49.47;99968.73;1583445;88;21100;-48
2021/05/13 08:06:53;;;;;;;3.52;0.90;;;;;;;15.16;50.00;99971.26;1643123;84;21029;-46
2021/05/13 08:09:20;;;;;;;1.17;0.88;;;;;;;15.18;48.98;99964.43;1644912;84;21030;-48
2021/05/13 08:11:48;;;;;;;1.57;1.05;;;;;;;15.18;49.04;99961.24;1657638;84;21063;-45
2021/05/13 08:14:15;;;;;;;2.58;1.25;;;;;;;15.20;48.05;99968.69;1660975;84;21025;-46
2021/05/13 08:16:41;;;;;;;2.30;1.20;;;;;;;15.21;48.29;99962.81;1639448;84;21070;-46
2021/05/13 08:19:09;;;;;;;2.22;1.42;;;;;;;15.23;48.87;99962.20;1641993;85;21045;-44
2021/05/13 08:21:36;;;;;;;1.12;1.00;;;;;;;15.26;48.75;99955.21;1656873;84;21171;-46
2021/05/13 08:24:04;;;;;;;1.62;1.10;;;;;;;15.31;48.63;99951.64;1619294;86;21013;-43
2021/05/13 08:26:30;;;;;;;3.60;1.20;;;;;;;15.38;48.16;99952.81;1648093;84;21373;-45
2021/05/13 08:28:57;;;;;;;1.87;1.10;;;;;;;15.44;48.15;99952.27;1647023;84;21088;-50
2021/05/13 08:31:24;;;;;;;2.92;1.32;;;;;;;15.50;47.04;99962.99;1652534;84;21870;-48
2021/05/13 08:33:51;;;;;;;4.37;1.17;;;;;;;15.54;46.60;99961.22;1654497;84;21057;-41
2021/05/13 08:36:18;;;;;;;1.82;1.32;;;;;;;15.54;45.59;99957.69;1653425;84;21746;-44
2021/05/13 08:38:45;;;;;;;1.72;1.37;;;;;;;15.52;45.84;99957.84;1679403;80;21509;-46
2021/05/13 08:41:11;;;;;;;1.90;1.27;;;;;;;15.53;47.25;99958.69;1765091;79;21041;-44
2021/05/13 08:43:38;;;;;;;2.42;1.57;;;;;;;15.58;47.69;99953.27;1757753;79;21010;-44
2021/05/13 08:46:04;;;;;;;1.65;1.40;;;;;;;15.64;46.12;99955.05;1760886;79;20994;-47
2021/05/13 08:48:31;;;;;;;3.25;2.05;;;;;;;15.66;46.08;99954.43;1761120;79;20971;-43
2021/05/13 08:50:59;;;;;;;3.98;2.00;;;;;;;15.66;45.74;99957.96;1759414;79;21552;-44
2021/05/13 08:53:26;;;;;;;2.47;1.80;;;;;;;15.66;46.05;99950.40;1746277;79;21014;-44
2021/05/13 08:55:52;;;;;;;2.12;1.85;;;;;;;15.64;45.73;99955.05;1730403;81;21018;-46
2021/05/13 08:58:21;;;;;;;2.50;1.57;;;;;;;15.63;46.82;99949.33;1748704;79;21073;-44
2021/05/13 09:00:55;;;;;;;1.65;1.32;;;;;;;15.67;47.77;99946.22;1755052;80;21013;-45
2021/05/13 09:03:35;;;;;;;1.98;1.45;;;;;;;15.74;48.06;99951.94;1744871;80;21350;-48
2021/05/13 09:06:07;;;;;;;1.47;1.30;;;;;;;15.78;46.24;99954.23;1750019;79;21029;-44
2021/05/13 09:08:34;;;;;;;1.90;1.37;;;;;;;15.81;46.56;99952.27;1758336;80;20994;-42
2021/05/13 09:11:17;;;;;;;2.35;1.37;;;;;;;15.83;45.71;99948.45;1745760;80;21663;-42
2021/05/13 09:13:48;;;;;;;1.72;1.30;;;;;;;15.85;45.78;99949.64;1741639;80;20987;-46
2021/05/13 09:16:29;;;;;;;2.50;1.45;;;;;;;15.88;46.08;99952.92;1743262;80;21581;-45
2021/05/13 09:18:57;;;;;;;3.17;2.02;;;;;;;15.94;46.54;99950.17;1741093;80;21553;-44
2021/05/13 09:21:24;;;;;;;1.05;0.85;;;;;;;16.01;46.01;99950.83;1746409;80;20971;-43
2021/05/13 09:23:52;;;;;;;5.80;2.30;;;;;;;16.05;43.97;99947.39;1745014;80;21002;-44
2021/05/13 09:26:20;;;;;;;2.58;1.45;;;;;;;16.01;43.94;99953.52;1743657;80;21002;-44
2021/05/13 09:28:57;;;;;;;2.12;1.35;;;;;;;15.98;44.35;99952.95;1739126;81;21019;-43
2021/05/13 09:31:39;;;;;;;2.37;1.40;;;;;;;15.99;44.89;99952.80;1733518;81;21012;-44
2021/05/13 09:34:08;;;;;;;1.70;1.27;;;;;;;16.01;45.39;99946.80;1736975;81;21411;-45
2021/05/13 09:36:35;;;;;;;3.40;1.05;;;;;;;16.04;44.33;99948.36;1748086;81;21058;-46
2021/05/13 09:39:25;;;;;;;2.65;1.60;;;;;;;16.03;44.29;99948.02;1685363;83;21011;-45
2021/05/13 09:42:04;;;;;;;3.35;1.32;;;;;;;16.05;44.70;99948.73;1690652;83;21765;-50
2021/05/13 09:44:39;;;;;;;2.47;2.13;;;;;;;16.11;45.55;99948.17;1704185;83;21011;-46
2021/05/13 09:47:26;;;;;;;1.92;1.67;;;;;;;16.18;44.86;99950.67;1702181;83;20992;-46
2021/05/13 09:50:16;;;;;;;2.27;1.40;;;;;;;16.26;44.98;99945.94;1701308;83;21037;-45
2021/05/13 09:52:57;;;;;;;1.22;1.12;;;;;;;16.32;44.70;99947.22;1708836;82;21034;-43
2021/05/13 09:55:33;;;;;;;2.10;1.67;;;;;;;16.39;45.63;99954.59;1701886;82;21031;-50
2021/05/13 09:58:06;;;;;;;2.85;1.60;;;;;;;16.48;46.56;99942.16;1700602;83;21126;-45
2021/05/13 10:00:48;;;;;;;2.40;1.90;;;;;;;16.55;44.49;99937.04;1694708;82;20992;-43
2021/05/13 10:03:18;;;;;;;1.92;1.20;;;;;;;16.55;44.09;99935.69;1705662;84;21004;-41
2021/05/13 10:05:50;;;;;;;3.85;1.95;;;;;;;16.54;44.57;99933.50;1699239;82;21632;-43
2021/05/13 10:08:17;;;;;;;3.42;1.35;;;;;;;16.56;44.89;99940.10;1697780;82;21004;-45
2021/05/13 10:10:44;;;;;;;2.45;1.75;;;;;;;16.58;45.57;99935.41;1701444;82;20989;-43
2021/05/13 10:13:11;;;;;;;1.60;1.50;;;;;;;16.59;45.56;99927.70;1758511;79;21018;-48
2021/05/13 10:15:40;;;;;;;3.37;1.50;;;;;;;16.60;44.90;99930.73;1756841;79;21580;-45
2021/05/13 10:18:20;;;;;;;5.17;1.52;;;;;;;16.63;44.01;99931.79;1759230;79;20990;-51
2021/05/13 10:20:58;;;;;;;4.28;3.42;;;;;;;16.66;43.85;99921.61;1756416;79;21536;-44
2021/05/13 10:23:25;;;;;;;2.02;1.30;;;;;;;16.71;43.35;99925.22;1747176;80;21029;-45
2021/05/13 10:25:52;;;;;;;1.92;1.02;;;;;;;16.76;44.87;99920.26;1748006;79;21038;-46
2021/05/13 10:28:18;;;;;;;2.85;1.10;;;;;;;16.85;45.18;99919.92;1757724;79;21033;-42
2021/05/13 10:30:49;;;;;;;1.75;1.17;;;;;;;16.93;43.78;99917.34;1693051;81;21444;-40
2021/05/13 10:33:21;;;;;;;3.22;2.05;;;;;;;16.98;43.36;99916.92;1725639;81;21084;-42
2021/05/13 10:36:08;;;;;;;3.87;1.25;;;;;;;16.96;41.88;99918.43;1745105;79;21009;-43
2021/05/13 10:38:54;;;;;;;4.22;2.12;;;;;;;16.91;42.48;99917.14;1758209;79;20974;-43
2021/05/13 10:41:35;;;;;;;4.62;1.60;;;;;;;16.89;42.82;99917.30;1759821;79;21014;-41
2021/05/13 10:44:18;;;;;;;2.92;1.27;;;;;;;16.92;43.55;99917.51;1757078;80;21029;-41
2021/05/13 10:47:00;;;;;;;4.47;1.85;;;;;;;16.95;42.91;99911.33;1765893;79;21076;-42
2021/05/13 10:49:27;;;;;;;2.37;1.00;;;;;;;16.98;44.34;99908.84;1757510;79;21049;-43
2021/05/13 10:51:58;;;;;;;3.30;1.40;;;;;;;17.01;42.51;99904.50;1764381;79;21025;-44
2021/05/13 10:54:36;;;;;;;1.90;1.30;;;;;;;17.02;42.77;99907.56;1759777;79;21380;-43
2021/05/13 10:57:20;;;;;;;2.30;1.35;;;;;;;17.04;42.71;99900.20;1760197;79;20986;-40
2021/05/13 11:00:11;;;;;;;4.00;1.62;;;;;;;17.06;43.29;99901.75;1763675;79;21002;-41
2021/05/13 11:02:45;;;;;;;3.20;1.10;;;;;;;17.11;43.14;99900.45;1756463;79;21018;-43
2021/05/13 11:05:38;;;;;;;3.30;1.22;;;;;;;17.13;41.89;99906.55;1762129;79;21074;-43
2021/05/13 11:08:12;;;;;;;1.47;1.20;;;;;;;17.12;42.04;99907.05;1768327;79;21017;-44
2021/05/13 11:10:59;;;;;;;3.95;2.15;;;;;;;17.11;41.59;99905.36;1768805;79;21604;-39
2021/05/13 11:13:45;;;;;;;2.42;1.32;;;;;;;17.09;42.92;99912.73;1757841;79;21058;-43
2021/05/13 11:16:46;;;;;;;1.45;1.20;;;;;;;17.11;42.50;99905.84;1761515;79;21049;-43
2021/05/13 11:19:16;;;;;;;1.55;1.35;;;;;;;17.10;43.26;99906.34;1765677;80;20962;-43
2021/05/13 11:22:06;;;;;;;2.60;1.62;;;;;;;17.11;42.64;99910.75;1763872;79;21021;-43
2021/05/13 11:24:37;;;;;;;3.02;1.20;;;;;;;17.11;42.08;99912.09;1703498;82;20999;-45
2021/05/13 11:27:05;;;;;;;1.70;1.17;;;;;;;17.11;42.36;99916.61;1762437;79;20986;-41
2021/05/13 11:29:47;;;;;;;1.80;1.30;;;;;;;17.13;42.20;99920.02;1766064;79;21009;-43
2021/05/13 11:32:15;;;;;;;1.47;1.30;;;;;;;17.15;42.33;99920.72;1758681;79;21018;-45
2021/05/13 11:34:43;;;;;;;1.57;1.00;;;;;;;17.19;42.66;99918.10;1765303;79;21062;-44
2021/05/13 11:37:12;;;;;;;3.35;1.40;;;;;;;17.20;43.03;99921.98;1760682;79;21695;-42
2021/05/13 11:39:39;;;;;;;2.95;1.40;;;;;;;17.21;42.83;99918.31;1760952;79;21076;-42
2021/05/13 11:42:06;;;;;;;1.55;1.20;;;;;;;17.19;41.74;99922.14;1757329;79;21624;-41
2021/05/13 11:44:32;;;;;;;2.62;1.65;;;;;;;17.12;42.26;99923.72;1763768;79;20997;-45
2021/05/13 11:46:59;;;;;;;4.35;1.60;;;;;;;17.06;42.75;99921.11;1758597;79;21532;-43
2021/05/13 11:49:25;;;;;;;1.98;1.07;;;;;;;17.02;42.87;99921.88;1760570;79;20994;-43